Douglas, Washington
Current Conditions -  °F | °C
As of 1:53 AM on Sunday 23 Nov 2014 (Local Time) from KEPH Reporting Station
Clear Clear  
Wind Chill: 28°   Ceiling: Unl
Heat Index: 35°   Visibility: 10mi
Dew Point: 29°   Wind: 9mph
Humidity: 78%   Direction: 210°SSW
Pressure: 30.07"   Gusts: NA
Location:  47.6257°N, 119.744°W
Report Text: KEPH 230953Z AUTO 21008KT 10SM CLR 02/M02 A3007 RMK AO2 SLP191 T00171017 $
Loading
Personal Weather Stations






























Interactive Weather Map New forecast layout! Learn more

10-Day Weather Forecast

Advertisements
Track Severe Weather on mobile